Impacts METAR Board
IDs:

KDTW - Detroit Metro/Wayne, MI, US

Updated at: 1100 UTC 09 Jul 2020
Potential Impact None Slight Moderate High
Time 08/23Z 09/00Z 09/01Z 09/02Z 09/03Z 09/04Z 09/05Z 09/06Z 09/07Z 09/08Z 09/09Z 09/10Z 09/11Z
Temp88 88 81 79 78 79 75 75 73 75 72 72 75
Dewpt66 67 70 70 66 66 67 67 67 67 67 68 68
Altim29.88 29.90 29.90 29.92 29.93 29.93 29.93 29.92 29.91 29.91 29.92 29.93 29.94
VIS10 10 10 10 10 10 10 10 10 10 10 8 8
CIG200 -- 220 220 220 220 220 120 220 220 220 220 140
CoverBKNSCTBKNBKNBKNBKNBKNBKNBKNBKNBKNBKNBKN
FltCatVFRVFRVFRVFRVFRVFRVFRVFRVFRVFRVFRVFRVFR
WX--------------------------
WDir3000170200180250017019002000270
WSpd3 0 7 6 6 3 0 3 3 3 3 0 4
WGst-- -- -- -- -- -- -- -- -- -- -- -- --
Raw hourly METARs
KDTW 082253Z 30003KT 10SM FEW045 BKN200 31/19 A2988 RMK AO2 SLP114 T03110189
KDTW 082353Z 00000KT 10SM SCT200 31/19 A2990 RMK AO2 SLP118 60000 T03110194 10333 20283 55009
KDTW 090053Z 17007KT 10SM SCT160 BKN220 27/21 A2990 RMK AO2 SLP121 T02720211
KDTW 090153Z 20006KT 10SM SCT160 BKN220 26/21 A2992 RMK AO2 SLP128 T02610211
KDTW 090253Z 18006KT 10SM FEW040 SCT160 BKN220 26/19 A2993 RMK AO2 SLP130 T02560189 51011
KDTW 090353Z 25003KT 10SM SCT050 BKN220 26/19 A2993 RMK AO2 SLP130 T02610189
KDTW 090453Z 00000KT 10SM SCT060 SCT110 BKN220 24/19 A2993 RMK AO2 SLP129 T02390194 403330217
KDTW 090553Z 17003KT 10SM FEW060 BKN120 BKN220 24/19 A2992 RMK AO2 SLP126 T02390194 10311 20233 58003
KDTW 090653Z 19003KT 10SM SCT120 BKN220 23/19 A2991 RMK AO2 SLP123 T02280194
KDTW 090753Z COR VRB03KT 10SM BKN220 24/19 A2991 RMK AO2 SLP124 T02390194
KDTW 090853Z 20003KT 10SM BKN220 22/19 A2992 RMK AO2 SLP126 T02220194 55001
KDTW 090953Z 00000KT 8SM FEW120 BKN220 22/20 A2993 RMK AO2 SLP130 T02220200
KDTW 091053Z 27004KT 8SM BKN140 BKN220 24/20 A2994 RMK AO2 SLP134 T02390200



Page loaded:  11:15 UTC  |   04:15 AM Pacific  |   05:15 AM Mountain  |   06:15 AM Central  |   07:15 AM Eastern

 

ADVISORIES

FORECASTS

FORECASTS

OBSERVATIONS

USER TOOLS

ABOUT US